Nearby METAR Reports

KLWM - Lawrence,MA, USA
Distance from station: NE 12mi, 19km
Updated: Thu, 21-Mar-2019 1:54pm EDT
Overcast
Overcast
 Wind from E
Wind: E 8 mph , 13 km/h
Temperature: 48°F , 9°C
Wind Chill: 44°F , 7°C
Dew Point: 28°F , -2°C
Humidity: 46%
Barometer: 30.14 inHg , 1020.7 hPa
Clouds: Overcast
Visibility: 10 miles , 16 km
Cloud details: Overcast 5500 ft
2019/03/21 17:54 KLWM 211754Z 10007KT 10SM OVC055 09/M02 A3014 RMK AO2 SLP205 T00891022 10094 20028 56030
KBED - Bedford,MA, USA
Distance from station: SSE 12mi, 19km
Updated: Thu, 21-Mar-2019 1:56pm EDT
Overcast
Overcast
 Wind from SSE
Wind: SSE 13 mph , 20 km/h
Temperature: 52°F , 11°C
Dew Point: 27°F , -3°C
Humidity: 38%
Barometer: 30.10 inHg , 1019.3 hPa
Clouds: Overcast
Visibility: 10 miles , 16 km
Cloud details: Overcast 5500 ft
2019/03/21 17:56 KBED 211756Z 15011KT 10SM OVC055 11/M03 A3010 RMK AO2 SLP206 T01111033 10111 20022 58031

Metar display script from Saratoga-Weather.org